John C. Munro Hamilton International Airport

CYHM · 安大略, 加拿大

罗盘
风向 的 风向 190° John C. Munro Hamilton International Airport 12/30
风: 14 kt, 4 beaufort

2 kt

14 kt
改变
0 ft 2.000 4.000 6.000 8.000 10.000
Cloud Cloud
FEW 6.000
METAR CYHM 221900Z 19014KT 15SM FEW060 13/M01 A3008 RMK CU1 CU TR SLP192

METAR John C. Munro Hamilton International Airport - CYHM/YHM

John C. Munro Hamilton International Airport是,加拿大中的中型机场。 该机场位于纬度43,17431和经度-79,93068。 该机场有2条跑道: 12/30 和 6/24. 本场的ICAO机场代码为CYHM。 该机场的IATA代码为YHM。 机场在Toronto FIR中。

该航空气象观测是针对John C. Munro Hamilton International Airport在2024年4月22日 15:00, 当地时间进行的。

机场观察

风向为190°,速度为14 kt。

可见度为15 mi。

有几云在6.000 ft的高度。 没有观察到天花板。

温度和风寒是13 °C。 露点为-1 °C,相对湿度为38%。 海平面上的气压为30,08 inHg (QNH)。

白天

今天,太阳从06:25升起,在20:11降落。 这适用于John C. Munro Hamilton International Airport,世界夏令时可能有所不同。 当地时间与世界标准时间之间的时差为-4 小时。 夏令时目前正在进行中。

公司介绍

这个机场上的公司有CargoJet, Onward Aviation 和 Jetport。

体会

到Vliegles.nl去找飞行课程,跳伞和其他飞行体验。 浏览页面,了解John C. Munro Hamilton International Airport附近所有可用的活动。 你也可以使用搜索功能来寻找你所在地附近的特定飞行课程、跳伞或其他飞行体验。

跑道

Id 标题 侧风 逆风 侧风 %
12/30 107°-287° 14 kt 2 kt 99 %
6/24 049°-229° 9 kt 11 kt 63 %

逆风成分最大的方向会被突出显示,并用于横风计算。 这并不一定意味着这个方向在使用。

乌云

6.000 ft FEW 几云

温度 & 天气

温度 13 °C
露点 -1 °C
相对湿度 38%
Kp-index 1 (0-9)

评论

SLP192海平面压力为30,10 inHg (30,10 inHg)
CU1 CU TR

白天

日出
06:25
中午
13:18
日落
20:11 (4:20)

小工具

你想在你的网站上有一个关于John C. Munro Hamilton International Airport的当前航空天气(METAR)的小部件吗?

显示HTML代码
报告变更